LIPQ/TRS METAR and TAF weather

Enter ICAO airport designator
Station Type Date Time Source
LIPQ METAR 2019/08/24 17:50 UTC NOAA

LIPQ 241750Z 10005KT 9999 SCT070 24/18 Q1017


Station Type Date Time Source
LIPQ Decoded METAR 2019/08/24 17:50 UTC NOAA

Station name not available
Aug 24, 2019 - 01:50 PM EDT / 2019.08.24 1750 UTC
Wind: from the E (100 degrees) at 6 MPH (5 KT):0
Visibility: greater than 7 mile(s):0
Sky conditions: partly cloudy
Temperature: 75 F (24 C)
Dew Point: 64 F (18 C)
Relative Humidity: 69%
Pressure (altimeter): 30.03 in. Hg (1017 hPa)
ob: LIPQ 241750Z 10005KT 9999 SCT070 24/18 Q1017
cycle: 18

Station Type Date Time Source
LIPQ TAF 2019/08/24 18:26 UTC NOAA

TAF LIPQ 241700Z 2418/2518 08010KT 9999 SCT040
TEMPO 2418/2420 4000 TSRA
BECMG 2420/2422 VRB05KT

Example: see airport list